Time;durP1;ratioP1;P1;durP2;ratioP2;P2;SDS_P1;SDS_P2;PMS_P1;PMS_P2;Temp;Humidity;BMP_temperature;BMP_pressure;BME280_temperature;BME280_humidity;BME280_pressure;Samples;Min_cycle;Max_cycle;Signal;HPM_P1;HPM_P2
2021/07/20 00:02:40;;;;;;;11.52;6.55;;;28.60;27.30;;;;;;21170342;28;20047;-72
2021/07/20 00:12:42;;;;;;;9.80;5.30;;;28.60;27.70;;;;;;21170261;28;20044;-67
2021/07/20 00:22:44;;;;;;;11.07;6.47;;;28.40;28.10;;;;;;21118362;28;20052;-65
2021/07/20 00:32:46;;;;;;;6.63;5.25;;;28.30;28.10;;;;;;21088322;28;20075;-72
2021/07/20 00:42:48;;;;;;;9.77;5.00;;;28.20;28.40;;;;;;21088825;28;20047;-72
2021/07/20 00:52:50;;;;;;;9.30;5.00;;;27.90;28.90;;;;;;21082972;28;20484;-70
2021/07/20 01:02:52;;;;;;;6.90;4.72;;;27.60;29.20;;;;;;21082202;28;20388;-72
2021/07/20 01:12:56;;;;;;;7.88;5.18;;;27.40;29.70;;;;;;21105432;28;20032;-71
2021/07/20 01:23:18;;;;;;;8.98;5.53;;;27.20;29.50;;;;;;21085274;28;20051;-72
2021/07/20 01:33:21;;;;;;;10.50;5.53;;;27.10;29.50;;;;;;21079305;28;20044;-71
2021/07/20 01:43:27;;;;;;;7.85;5.13;;;27.10;29.80;;;;;;21078082;28;20046;-71
2021/07/20 01:53:32;;;;;;;8.43;5.50;;;27.10;29.80;;;;;;21079081;28;20075;-71
2021/07/20 02:14:01;;;;;;;8.25;5.13;;;27.10;29.90;;;;;;21092643;28;20048;-72
2021/07/20 02:24:05;;;;;;;6.32;5.20;;;27.10;29.80;;;;;;21090245;28;20055;-67
2021/07/20 02:34:10;;;;;;;7.22;4.47;;;27.00;30.50;;;;;;21091636;28;20044;-70
2021/07/20 02:44:14;;;;;;;7.55;4.95;;;26.90;30.80;;;;;;21089624;28;20052;-67
2021/07/20 02:54:33;;;;;;;7.43;5.15;;;26.60;31.40;;;;;;21089619;28;20134;-72
2021/07/20 03:04:45;;;;;;;7.45;5.38;;;26.40;31.50;;;;;;21088946;28;20063;-68
2021/07/20 03:14:52;;;;;;;7.70;5.72;;;26.10;31.70;;;;;;21087794;28;20043;-66
2021/07/20 03:25:00;;;;;;;7.38;4.85;;;25.80;32.20;;;;;;21087447;28;20143;-66
2021/07/20 03:35:05;;;;;;;6.93;4.70;;;25.60;31.90;;;;;;21088413;28;20102;-68
2021/07/20 03:45:12;;;;;;;11.50;5.28;;;25.60;32.00;;;;;;21085254;28;20075;-66
2021/07/20 03:55:23;;;;;;;10.23;4.63;;;25.40;31.70;;;;;;21085492;28;20048;-66
2021/07/20 04:05:26;;;;;;;7.70;4.32;;;25.20;32.40;;;;;;21085345;28;20052;-71
2021/07/20 04:15:28;;;;;;;8.52;4.53;;;25.00;32.70;;;;;;21082018;28;20044;-65
2021/07/20 04:25:32;;;;;;;9.63;4.38;;;24.80;33.10;;;;;;21080011;28;20062;-72
2021/07/20 04:35:42;;;;;;;8.00;4.75;;;24.80;33.10;;;;;;21082093;28;20123;-72
2021/07/20 04:45:52;;;;;;;8.32;4.57;;;24.80;33.60;;;;;;21080253;28;20047;-70
2021/07/20 04:56:08;;;;;;;8.18;5.00;;;24.80;32.70;;;;;;21079861;28;20083;-71
2021/07/20 05:06:10;;;;;;;8.18;4.97;;;24.60;33.30;;;;;;21079442;28;20043;-68
2021/07/20 05:16:13;;;;;;;9.10;5.53;;;24.70;33.70;;;;;;21079198;28;20499;-70
2021/07/20 05:26:16;;;;;;;9.82;5.25;;;24.70;33.50;;;;;;21078355;28;20059;-65
2021/07/20 05:36:18;;;;;;;7.80;4.97;;;24.80;33.40;;;;;;21089215;28;20048;-72
2021/07/20 05:46:23;;;;;;;6.30;4.78;;;24.80;33.30;;;;;;21094097;28;20094;-70
2021/07/20 05:56:30;;;;;;;12.85;5.80;;;24.90;33.70;;;;;;21094020;28;20047;-66
2021/07/20 06:06:32;;;;;;;10.55;6.30;;;25.00;33.80;;;;;;21093946;28;20101;-70
2021/07/20 06:16:34;;;;;;;12.95;5.60;;;25.10;34.00;;;;;;21093925;28;20473;-69
2021/07/20 06:26:38;;;;;;;9.85;5.15;;;25.20;33.90;;;;;;21023081;28;20095;-72
2021/07/20 06:36:42;;;;;;;11.15;5.40;;;25.40;33.60;;;;;;21007338;28;20106;-67
2021/07/20 06:46:46;;;;;;;14.00;5.07;;;25.60;33.60;;;;;;21006076;28;20071;-68
2021/07/20 06:56:54;;;;;;;14.63;6.03;;;25.90;33.90;;;;;;21006233;28;20053;-70
2021/07/20 07:07:01;;;;;;;12.85;5.50;;;26.20;34.40;;;;;;20987228;28;20049;-69
2021/07/20 07:17:06;;;;;;;12.35;5.65;;;26.80;33.70;;;;;;21004588;28;20048;-72
2021/07/20 07:27:09;;;;;;;12.27;5.28;;;27.30;33.70;;;;;;21075692;28;20060;-67
2021/07/20 07:37:21;;;;;;;10.45;5.43;;;27.90;33.70;;;;;;21086472;28;20048;-71
2021/07/20 07:47:26;;;;;;;13.50;5.75;;;28.30;34.20;;;;;;21087091;28;20067;-67
2021/07/20 07:57:30;;;;;;;11.48;4.72;;;28.60;33.40;;;;;;21083390;28;20380;-69
2021/07/20 08:07:37;;;;;;;11.45;4.88;;;28.90;33.70;;;;;;21082860;28;20135;-70
2021/07/20 08:17:39;;;;;;;7.32;5.28;;;29.30;33.60;;;;;;21082348;28;20546;-65
2021/07/20 08:27:50;;;;;;;12.32;4.38;;;29.90;33.10;;;;;;21081176;28;20056;-71
2021/07/20 08:37:52;;;;;;;9.90;5.27;;;30.20;32.40;;;;;;21081752;28;20051;-71
2021/07/20 08:48:02;;;;;;;9.75;4.70;;;30.60;31.30;;;;;;21080594;28;20770;-66
2021/07/20 08:58:38;;;;;;;7.70;5.05;;;31.00;30.50;;;;;;21080453;28;20123;-68
2021/07/20 09:08:48;;;;;;;12.35;5.72;;;31.30;29.90;;;;;;20740831;28;20049;-69
2021/07/20 09:18:58;;;;;;;11.40;5.10;;;31.40;29.50;;;;;;20743958;28;20050;-71
2021/07/20 09:29:13;;;;;;;11.23;5.30;;;31.80;29.00;;;;;;20806334;28;20473;-72
2021/07/20 09:39:45;;;;;;;9.25;4.85;;;32.10;28.80;;;;;;20889549;28;20460;-69
2021/07/20 09:50:08;;;;;;;11.57;5.20;;;32.40;27.90;;;;;;21091677;28;20052;-73
2021/07/20 10:00:13;;;;;;;11.55;5.47;;;32.80;27.50;;;;;;21079185;28;20048;-72
2021/07/20 10:10:47;;;;;;;12.55;5.45;;;32.90;27.40;;;;;;21077552;28;20047;-72
2021/07/20 10:20:56;;;;;;;14.80;5.85;;;33.30;26.10;;;;;;20826239;28;20053;-68
2021/07/20 10:31:15;;;;;;;15.70;6.05;;;33.40;25.90;;;;;;20834034;28;20054;-72
2021/07/20 10:41:24;;;;;;;9.87;4.73;;;33.40;25.50;;;;;;20833488;28;20057;-70
2021/07/20 10:51:32;;;;;;;9.17;4.20;;;33.50;24.40;;;;;;20899730;28;20064;-71
2021/07/20 11:02:04;;;;;;;6.93;4.93;;;33.70;22.40;;;;;;21089343;28;20084;-68
2021/07/20 11:12:09;;;;;;;5.82;4.95;;;34.10;22.00;;;;;;21088254;28;20408;-72
2021/07/20 11:22:14;;;;;;;9.52;4.47;;;34.20;21.70;;;;;;21088358;28;20052;-72
2021/07/20 11:32:24;;;;;;;9.10;4.72;;;34.30;21.50;;;;;;21089815;28;20044;-70
2021/07/20 11:42:44;;;;;;;8.13;4.97;;;34.40;21.60;;;;;;21105775;28;20056;-72
2021/07/20 11:52:46;;;;;;;7.72;4.85;;;34.40;21.80;;;;;;21086415;28;20047;-72
2021/07/20 12:03:19;;;;;;;6.13;4.45;;;34.40;21.90;;;;;;21087507;28;20109;-72
2021/07/20 12:13:22;;;;;;;5.22;4.30;;;34.70;20.80;;;;;;21085823;28;20428;-68
2021/07/20 12:23:24;;;;;;;5.18;4.45;;;34.70;20.70;;;;;;21084471;28;20090;-68
2021/07/20 12:33:26;;;;;;;6.93;4.47;;;34.70;21.60;;;;;;21082147;28;20113;-72
2021/07/20 12:43:30;;;;;;;8.40;4.53;;;34.80;21.10;;;;;;21081829;28;20506;-71
2021/07/20 12:53:32;;;;;;;7.53;4.03;;;35.00;21.10;;;;;;21081316;28;20052;-73
2021/07/20 13:03:35;;;;;;;7.55;3.72;;;35.10;21.00;;;;;;21080301;28;20105;-73
2021/07/20 13:13:37;;;;;;;7.00;4.30;;;35.10;21.20;;;;;;21079859;28;20044;-73
2021/07/20 13:23:41;;;;;;;9.77;3.97;;;35.30;20.80;;;;;;21078542;28;20048;-74
2021/07/20 13:33:43;;;;;;;8.80;3.67;;;35.60;20.00;;;;;;21078503;28;20048;-71
2021/07/20 13:43:45;;;;;;;10.02;4.32;;;35.50;20.00;;;;;;21079518;28;20076;-71
2021/07/20 13:54:07;;;;;;;10.55;4.38;;;35.60;20.50;;;;;;21159789;28;20108;-72
2021/07/20 14:04:10;;;;;;;11.10;4.70;;;35.80;20.40;;;;;;21181380;28;20048;-72
2021/07/20 14:14:14;;;;;;;10.48;4.45;;;35.80;20.70;;;;;;21179201;28;20071;-74
2021/07/20 14:24:17;;;;;;;7.43;4.07;;;35.80;20.80;;;;;;21178105;28;20055;-72
2021/07/20 14:34:20;;;;;;;8.93;4.20;;;36.10;20.40;;;;;;21176988;28;20047;-75
2021/07/20 14:44:22;;;;;;;7.38;3.92;;;35.80;20.80;;;;;;21184307;28;20456;-74
2021/07/20 14:54:25;;;;;;;5.97;4.13;;;35.90;20.90;;;;;;21176927;28;20043;-72
2021/07/20 15:04:28;;;;;;;5.93;3.85;;;35.90;21.10;;;;;;21174534;28;20134;-72
2021/07/20 15:14:32;;;;;;;8.35;3.95;;;35.80;21.10;;;;;;21175494;28;20404;-68
2021/07/20 15:24:39;;;;;;;10.15;4.45;;;35.70;21.10;;;;;;21173563;28;20048;-75
2021/07/20 15:34:41;;;;;;;11.53;5.57;;;35.80;21.10;;;;;;21172750;28;20055;-76
2021/07/20 15:44:47;;;;;;;10.27;5.10;;;35.90;21.30;;;;;;21152517;28;20104;-70
2021/07/20 15:54:49;;;;;;;7.10;4.75;;;35.90;21.20;;;;;;21170689;28;20048;-74
2021/07/20 16:04:51;;;;;;;8.40;4.47;;;35.80;21.40;;;;;;21177392;28;20416;-73
2021/07/20 16:14:53;;;;;;;9.95;4.45;;;35.70;21.30;;;;;;21168920;28;20407;-71
2021/07/20 16:24:55;;;;;;;7.45;4.63;;;35.60;21.60;;;;;;21169840;28;20415;-70
2021/07/20 16:34:56;;;;;;;7.72;4.75;;;35.60;21.10;;;;;;21172845;28;20055;-73
2021/07/20 16:45:09;;;;;;;9.57;4.22;;;35.50;21.00;;;;;;21175799;28;20055;-71
2021/07/20 16:55:14;;;;;;;7.13;4.65;;;35.40;21.00;;;;;;21168707;28;20442;-70
2021/07/20 17:05:17;;;;;;;6.18;4.03;;;35.40;20.80;;;;;;21167421;28;20052;-71
2021/07/20 17:15:24;;;;;;;7.15;4.38;;;35.30;20.80;;;;;;21147885;28;20040;-70
2021/07/20 17:25:26;;;;;;;11.02;5.03;;;35.20;20.80;;;;;;21167332;28;20491;-69
2021/07/20 17:35:33;;;;;;;7.32;4.65;;;35.10;20.80;;;;;;21191479;28;20079;-68
2021/07/20 17:45:35;;;;;;;5.93;4.93;;;35.00;20.60;;;;;;21192254;28;20093;-67
2021/07/20 17:55:37;;;;;;;6.43;4.43;;;34.80;20.40;;;;;;21172549;28;20059;-66
2021/07/20 18:05:39;;;;;;;5.80;3.90;;;34.60;20.40;;;;;;21192668;28;20047;-76
2021/07/20 18:15:40;;;;;;;5.70;4.55;;;34.60;20.30;;;;;;21196877;28;20055;-68
2021/07/20 18:25:42;;;;;;;8.88;4.50;;;34.50;20.40;;;;;;21195248;28;20161;-68
2021/07/20 18:35:44;;;;;;;6.90;4.38;;;34.30;20.10;;;;;;21194498;28;20141;-74
2021/07/20 18:45:49;;;;;;;6.72;3.83;;;34.20;19.70;;;;;;21160180;28;20051;-68
2021/07/20 18:55:53;;;;;;;6.82;4.25;;;33.90;19.70;;;;;;21178872;28;20044;-72
2021/07/20 19:05:58;;;;;;;6.10;4.50;;;33.90;19.50;;;;;;21175584;28;20138;-67
2021/07/20 19:15:59;;;;;;;7.95;4.50;;;33.70;19.80;;;;;;21174405;28;20044;-74
2021/07/20 19:26:01;;;;;;;6.72;4.13;;;33.50;19.90;;;;;;21174234;28;20070;-75
2021/07/20 19:36:03;;;;;;;5.13;4.45;;;33.30;19.80;;;;;;21174533;28;20461;-75
2021/07/20 19:46:06;;;;;;;6.03;5.05;;;33.10;20.40;;;;;;21171890;28;20051;-71
2021/07/20 19:56:12;;;;;;;12.48;6.93;;;33.00;20.70;;;;;;21169335;28;20176;-71
2021/07/20 20:06:13;;;;;;;7.18;5.25;;;32.70;21.10;;;;;;21185894;28;20047;-73
2021/07/20 20:16:15;;;;;;;9.65;5.93;;;32.60;21.20;;;;;;21174374;28;20046;-74
2021/07/20 20:26:17;;;;;;;8.70;5.55;;;32.40;21.50;;;;;;21171040;28;20067;-69
2021/07/20 20:36:19;;;;;;;9.00;6.03;;;32.20;21.80;;;;;;21172154;28;20069;-69
2021/07/20 20:46:21;;;;;;;9.82;5.28;;;32.10;21.30;;;;;;21173989;28;20044;-67
2021/07/20 20:56:25;;;;;;;6.50;5.32;;;31.90;21.60;;;;;;21177465;28;20108;-75
2021/07/20 21:06:27;;;;;;;8.50;5.40;;;31.70;21.10;;;;;;21176209;28;20051;-74
2021/07/20 21:16:29;;;;;;;9.73;5.78;;;31.60;20.70;;;;;;21183879;28;20105;-74
2021/07/20 21:26:32;;;;;;;7.00;5.10;;;31.40;20.60;;;;;;21171790;28;20051;-70
2021/07/20 21:36:33;;;;;;;10.27;5.95;;;31.20;21.20;;;;;;21183449;28;20055;-74
2021/07/20 21:46:35;;;;;;;10.43;6.50;;;31.00;22.00;;;;;;21174454;28;20044;-67
2021/07/20 21:56:37;;;;;;;10.10;5.72;;;30.70;22.50;;;;;;21163815;28;20048;-70
2021/07/20 22:06:39;;;;;;;10.30;6.72;;;30.60;22.20;;;;;;21163741;28;20048;-70
2021/07/20 22:16:41;;;;;;;10.50;5.97;;;30.40;22.60;;;;;;21172435;28;20071;-69
2021/07/20 22:26:45;;;;;;;11.02;6.60;;;30.20;22.80;;;;;;21109524;28;20099;-71
2021/07/20 22:36:48;;;;;;;10.32;6.80;;;30.10;23.00;;;;;;21095602;28;20055;-70
2021/07/20 22:46:50;;;;;;;15.50;6.53;;;30.00;23.60;;;;;;21096521;28;20048;-69
2021/07/20 22:56:52;;;;;;;11.75;7.03;;;29.70;24.40;;;;;;21093064;28;20080;-71
2021/07/20 23:06:54;;;;;;;9.18;5.63;;;29.50;24.60;;;;;;21091152;28;20093;-72
2021/07/20 23:16:55;;;;;;;10.32;6.78;;;29.40;24.50;;;;;;21089286;28;20090;-74
2021/07/20 23:26:57;;;;;;;10.50;6.00;;;29.00;25.90;;;;;;21088526;28;20082;-67
2021/07/20 23:36:59;;;;;;;11.15;6.45;;;28.70;26.40;;;;;;21088664;28;20058;-69
2021/07/20 23:47:01;;;;;;;10.55;6.22;;;;;;;;;;21087141;28;20496;-72
2021/07/20 23:57:03;;;;;;;8.32;6.30;;;;;;;;;;21086895;28;20542;-74
